sensor_id;sensor_type;location;lat;lon;timestamp;P1;durP1;ratioP1;P2;durP2;ratioP2
56297;SDS011;42208;6.376;-10.782;2023-05-16T00:00:57;25.15;;;11.15;;
56297;SDS011;42208;6.376;-10.782;2023-05-16T00:03:25;25.90;;;9.15;;
56297;SDS011;42208;6.376;-10.782;2023-05-16T00:05:54;24.05;;;10.02;;
56297;SDS011;42208;6.376;-10.782;2023-05-16T00:08:22;22.40;;;9.07;;
56297;SDS011;42208;6.376;-10.782;2023-05-16T00:10:50;25.48;;;9.60;;
56297;SDS011;42208;6.376;-10.782;2023-05-16T00:15:32;26.58;;;10.00;;
56297;SDS011;42208;6.376;-10.782;2023-05-16T00:18:01;22.85;;;8.93;;
56297;SDS011;42208;6.376;-10.782;2023-05-16T00:20:29;22.13;;;9.25;;
56297;SDS011;42208;6.376;-10.782;2023-05-16T00:22:57;20.48;;;9.00;;
56297;SDS011;42208;6.376;-10.782;2023-05-16T00:25:25;22.40;;;10.13;;
56297;SDS011;42208;6.376;-10.782;2023-05-16T00:27:54;25.60;;;10.45;;
56297;SDS011;42208;6.376;-10.782;2023-05-16T00:30:22;24.25;;;8.45;;
56297;SDS011;42208;6.376;-10.782;2023-05-16T00:32:51;26.40;;;10.70;;
56297;SDS011;42208;6.376;-10.782;2023-05-16T00:35:22;22.45;;;10.18;;
56297;SDS011;42208;6.376;-10.782;2023-05-16T00:37:51;25.02;;;10.02;;
56297;SDS011;42208;6.376;-10.782;2023-05-16T00:40:20;21.27;;;8.68;;
56297;SDS011;42208;6.376;-10.782;2023-05-16T00:42:48;29.52;;;10.80;;
56297;SDS011;42208;6.376;-10.782;2023-05-16T00:45:17;22.60;;;10.20;;
56297;SDS011;42208;6.376;-10.782;2023-05-16T00:47:45;36.83;;;11.98;;
56297;SDS011;42208;6.376;-10.782;2023-05-16T00:50:13;34.95;;;13.80;;
56297;SDS011;42208;6.376;-10.782;2023-05-16T00:52:45;32.63;;;13.45;;
56297;SDS011;42208;6.376;-10.782;2023-05-16T00:55:14;38.50;;;15.77;;
56297;SDS011;42208;6.376;-10.782;2023-05-16T00:57:42;39.90;;;14.85;;
56297;SDS011;42208;6.376;-10.782;2023-05-16T01:00:11;35.55;;;14.80;;
56297;SDS011;42208;6.376;-10.782;2023-05-16T01:02:40;40.45;;;14.65;;
56297;SDS011;42208;6.376;-10.782;2023-05-16T01:05:10;36.28;;;14.40;;
56297;SDS011;42208;6.376;-10.782;2023-05-16T01:07:38;54.13;;;16.35;;
56297;SDS011;42208;6.376;-10.782;2023-05-16T01:10:06;46.05;;;15.80;;
56297;SDS011;42208;6.376;-10.782;2023-05-16T01:15:13;45.88;;;15.38;;
56297;SDS011;42208;6.376;-10.782;2023-05-16T01:20:32;42.83;;;15.48;;
56297;SDS011;42208;6.376;-10.782;2023-05-16T01:28:43;39.53;;;16.08;;
56297;SDS011;42208;6.376;-10.782;2023-05-16T01:31:12;37.35;;;13.50;;
56297;SDS011;42208;6.376;-10.782;2023-05-16T01:33:41;33.00;;;12.52;;
56297;SDS011;42208;6.376;-10.782;2023-05-16T01:36:12;33.65;;;11.95;;
56297;SDS011;42208;6.376;-10.782;2023-05-16T01:41:54;30.92;;;10.10;;
56297;SDS011;42208;6.376;-10.782;2023-05-16T01:47:13;28.30;;;9.40;;
56297;SDS011;42208;6.376;-10.782;2023-05-16T01:49:54;30.97;;;10.73;;
56297;SDS011;42208;6.376;-10.782;2023-05-16T01:52:26;22.52;;;10.80;;
56297;SDS011;42208;6.376;-10.782;2023-05-16T01:55:44;37.70;;;14.20;;
56297;SDS011;42208;6.376;-10.782;2023-05-16T01:58:19;38.70;;;13.98;;
56297;SDS011;42208;6.376;-10.782;2023-05-16T02:00:51;36.72;;;13.07;;
56297;SDS011;42208;6.376;-10.782;2023-05-16T02:03:20;29.88;;;13.27;;
56297;SDS011;42208;6.376;-10.782;2023-05-16T02:05:49;28.30;;;11.20;;
56297;SDS011;42208;6.376;-10.782;2023-05-16T02:08:17;26.30;;;10.50;;
56297;SDS011;42208;6.376;-10.782;2023-05-16T02:10:48;20.38;;;9.60;;
56297;SDS011;42208;6.376;-10.782;2023-05-16T02:13:17;29.60;;;10.80;;
56297;SDS011;42208;6.376;-10.782;2023-05-16T02:15:48;22.70;;;9.52;;
56297;SDS011;42208;6.376;-10.782;2023-05-16T02:18:17;28.88;;;10.80;;
56297;SDS011;42208;6.376;-10.782;2023-05-16T02:20:45;23.77;;;9.57;;
56297;SDS011;42208;6.376;-10.782;2023-05-16T02:23:14;26.60;;;9.68;;
56297;SDS011;42208;6.376;-10.782;2023-05-16T02:25:42;32.05;;;10.27;;
56297;SDS011;42208;6.376;-10.782;2023-05-16T02:28:11;28.35;;;9.25;;
56297;SDS011;42208;6.376;-10.782;2023-05-16T02:30:39;28.13;;;9.93;;
56297;SDS011;42208;6.376;-10.782;2023-05-16T02:33:07;25.80;;;10.40;;
56297;SDS011;42208;6.376;-10.782;2023-05-16T02:35:36;32.58;;;9.82;;
56297;SDS011;42208;6.376;-10.782;2023-05-16T02:38:05;35.92;;;10.80;;
56297;SDS011;42208;6.376;-10.782;2023-05-16T02:40:33;26.90;;;10.20;;
56297;SDS011;42208;6.376;-10.782;2023-05-16T02:43:01;27.30;;;10.15;;
56297;SDS011;42208;6.376;-10.782;2023-05-16T02:45:30;32.08;;;10.07;;
56297;SDS011;42208;6.376;-10.782;2023-05-16T02:47:58;24.33;;;10.68;;
56297;SDS011;42208;6.376;-10.782;2023-05-16T02:50:26;33.63;;;11.05;;
56297;SDS011;42208;6.376;-10.782;2023-05-16T02:52:55;20.48;;;9.23;;
56297;SDS011;42208;6.376;-10.782;2023-05-16T02:55:23;18.17;;;8.23;;
56297;SDS011;42208;6.376;-10.782;2023-05-16T02:57:52;37.90;;;10.40;;
56297;SDS011;42208;6.376;-10.782;2023-05-16T03:00:20;28.63;;;10.05;;
56297;SDS011;42208;6.376;-10.782;2023-05-16T03:02:48;33.75;;;9.02;;
56297;SDS011;42208;6.376;-10.782;2023-05-16T03:05:16;25.58;;;8.73;;
56297;SDS011;42208;6.376;-10.782;2023-05-16T03:07:46;29.42;;;9.20;;
56297;SDS011;42208;6.376;-10.782;2023-05-16T03:10:15;22.35;;;8.70;;
56297;SDS011;42208;6.376;-10.782;2023-05-16T03:12:44;18.25;;;6.43;;
56297;SDS011;42208;6.376;-10.782;2023-05-16T03:15:12;29.40;;;9.07;;
56297;SDS011;42208;6.376;-10.782;2023-05-16T03:17:41;15.02;;;6.90;;
56297;SDS011;42208;6.376;-10.782;2023-05-16T03:20:09;19.83;;;6.05;;
56297;SDS011;42208;6.376;-10.782;2023-05-16T03:22:38;19.35;;;6.55;;
56297;SDS011;42208;6.376;-10.782;2023-05-16T03:25:09;18.80;;;6.90;;
56297;SDS011;42208;6.376;-10.782;2023-05-16T03:27:39;24.67;;;7.30;;
56297;SDS011;42208;6.376;-10.782;2023-05-16T03:30:07;22.17;;;7.22;;
56297;SDS011;42208;6.376;-10.782;2023-05-16T03:32:36;23.85;;;7.03;;
56297;SDS011;42208;6.376;-10.782;2023-05-16T03:35:05;33.92;;;7.15;;
56297;SDS011;42208;6.376;-10.782;2023-05-16T03:37:33;24.27;;;6.72;;
56297;SDS011;42208;6.376;-10.782;2023-05-16T03:40:01;21.25;;;6.78;;
56297;SDS011;42208;6.376;-10.782;2023-05-16T03:42:30;13.75;;;6.15;;
56297;SDS011;42208;6.376;-10.782;2023-05-16T03:44:58;22.10;;;7.65;;
56297;SDS011;42208;6.376;-10.782;2023-05-16T03:47:27;30.02;;;7.70;;
56297;SDS011;42208;6.376;-10.782;2023-05-16T03:49:55;18.65;;;6.55;;
56297;SDS011;42208;6.376;-10.782;2023-05-16T03:52:24;21.40;;;6.30;;
56297;SDS011;42208;6.376;-10.782;2023-05-16T03:54:52;18.67;;;5.90;;
56297;SDS011;42208;6.376;-10.782;2023-05-16T03:57:20;26.58;;;6.50;;
56297;SDS011;42208;6.376;-10.782;2023-05-16T03:59:48;24.25;;;5.90;;
56297;SDS011;42208;6.376;-10.782;2023-05-16T04:02:17;26.10;;;6.40;;
56297;SDS011;42208;6.376;-10.782;2023-05-16T04:04:45;20.58;;;5.93;;
56297;SDS011;42208;6.376;-10.782;2023-05-16T04:07:13;15.85;;;6.32;;
56297;SDS011;42208;6.376;-10.782;2023-05-16T04:09:41;17.98;;;5.75;;
56297;SDS011;42208;6.376;-10.782;2023-05-16T04:12:10;14.13;;;5.25;;
56297;SDS011;42208;6.376;-10.782;2023-05-16T04:14:38;12.55;;;5.20;;
56297;SDS011;42208;6.376;-10.782;2023-05-16T04:17:06;21.05;;;6.68;;
56297;SDS011;42208;6.376;-10.782;2023-05-16T04:19:34;10.32;;;4.88;;
56297;SDS011;42208;6.376;-10.782;2023-05-16T04:22:03;13.13;;;5.45;;
56297;SDS011;42208;6.376;-10.782;2023-05-16T04:24:31;14.85;;;5.75;;
56297;SDS011;42208;6.376;-10.782;2023-05-16T04:26:59;15.38;;;5.53;;
56297;SDS011;42208;6.376;-10.782;2023-05-16T04:29:28;20.15;;;4.80;;
56297;SDS011;42208;6.376;-10.782;2023-05-16T04:31:56;14.63;;;5.22;;
56297;SDS011;42208;6.376;-10.782;2023-05-16T04:34:24;16.23;;;6.20;;
56297;SDS011;42208;6.376;-10.782;2023-05-16T04:36:53;16.02;;;5.15;;
56297;SDS011;42208;6.376;-10.782;2023-05-16T04:39:21;26.33;;;6.15;;
56297;SDS011;42208;6.376;-10.782;2023-05-16T04:41:50;26.48;;;5.45;;
56297;SDS011;42208;6.376;-10.782;2023-05-16T04:44:18;25.10;;;5.93;;
56297;SDS011;42208;6.376;-10.782;2023-05-16T04:46:46;17.52;;;5.50;;
56297;SDS011;42208;6.376;-10.782;2023-05-16T04:49:15;17.73;;;5.50;;
56297;SDS011;42208;6.376;-10.782;2023-05-16T04:51:43;14.98;;;4.70;;
56297;SDS011;42208;6.376;-10.782;2023-05-16T04:54:11;18.15;;;4.68;;
56297;SDS011;42208;6.376;-10.782;2023-05-16T04:56:40;19.50;;;4.88;;
56297;SDS011;42208;6.376;-10.782;2023-05-16T04:59:08;20.00;;;5.28;;
56297;SDS011;42208;6.376;-10.782;2023-05-16T05:01:36;14.82;;;4.82;;
56297;SDS011;42208;6.376;-10.782;2023-05-16T05:04:04;12.27;;;4.68;;
56297;SDS011;42208;6.376;-10.782;2023-05-16T05:06:33;12.07;;;4.35;;
56297;SDS011;42208;6.376;-10.782;2023-05-16T05:09:01;11.77;;;4.97;;
56297;SDS011;42208;6.376;-10.782;2023-05-16T05:11:29;18.48;;;4.18;;
56297;SDS011;42208;6.376;-10.782;2023-05-16T05:13:58;21.88;;;5.07;;
56297;SDS011;42208;6.376;-10.782;2023-05-16T05:16:26;17.23;;;4.65;;
56297;SDS011;42208;6.376;-10.782;2023-05-16T05:18:54;9.32;;;3.92;;
56297;SDS011;42208;6.376;-10.782;2023-05-16T05:21:23;8.57;;;3.55;;
56297;SDS011;42208;6.376;-10.782;2023-05-16T05:23:51;11.70;;;4.03;;
56297;SDS011;42208;6.376;-10.782;2023-05-16T05:26:19;20.75;;;4.55;;
56297;SDS011;42208;6.376;-10.782;2023-05-16T05:28:48;12.38;;;3.90;;
56297;SDS011;42208;6.376;-10.782;2023-05-16T05:31:30;11.98;;;4.75;;
56297;SDS011;42208;6.376;-10.782;2023-05-16T05:33:58;12.90;;;4.93;;
56297;SDS011;42208;6.376;-10.782;2023-05-16T05:36:26;11.32;;;4.60;;
56297;SDS011;42208;6.376;-10.782;2023-05-16T05:38:54;12.73;;;4.45;;
56297;SDS011;42208;6.376;-10.782;2023-05-16T05:41:23;25.73;;;4.90;;
56297;SDS011;42208;6.376;-10.782;2023-05-16T05:43:51;21.38;;;5.00;;
56297;SDS011;42208;6.376;-10.782;2023-05-16T05:46:19;24.92;;;4.97;;
56297;SDS011;42208;6.376;-10.782;2023-05-16T05:48:48;18.25;;;4.30;;
56297;SDS011;42208;6.376;-10.782;2023-05-16T05:51:16;11.45;;;5.03;;
56297;SDS011;42208;6.376;-10.782;2023-05-16T05:53:45;10.40;;;4.18;;
56297;SDS011;42208;6.376;-10.782;2023-05-16T05:56:13;12.02;;;4.05;;
56297;SDS011;42208;6.376;-10.782;2023-05-16T05:58:41;13.23;;;4.65;;
56297;SDS011;42208;6.376;-10.782;2023-05-16T06:01:10;12.95;;;4.80;;
56297;SDS011;42208;6.376;-10.782;2023-05-16T06:03:38;24.35;;;6.22;;
56297;SDS011;42208;6.376;-10.782;2023-05-16T06:06:07;20.90;;;5.65;;
56297;SDS011;42208;6.376;-10.782;2023-05-16T06:08:35;18.23;;;6.32;;
56297;SDS011;42208;6.376;-10.782;2023-05-16T06:11:03;19.50;;;7.03;;
56297;SDS011;42208;6.376;-10.782;2023-05-16T06:15:29;17.40;;;6.70;;
56297;SDS011;42208;6.376;-10.782;2023-05-16T06:17:58;38.38;;;8.27;;
56297;SDS011;42208;6.376;-10.782;2023-05-16T06:20:26;32.17;;;8.35;;
56297;SDS011;42208;6.376;-10.782;2023-05-16T06:22:54;25.52;;;8.05;;
56297;SDS011;42208;6.376;-10.782;2023-05-16T06:25:22;28.20;;;7.03;;
56297;SDS011;42208;6.376;-10.782;2023-05-16T06:27:51;23.23;;;7.82;;
56297;SDS011;42208;6.376;-10.782;2023-05-16T06:30:19;24.80;;;6.72;;
56297;SDS011;42208;6.376;-10.782;2023-05-16T06:32:47;24.98;;;6.75;;
56297;SDS011;42208;6.376;-10.782;2023-05-16T06:35:16;23.50;;;7.93;;
56297;SDS011;42208;6.376;-10.782;2023-05-16T06:37:44;23.70;;;7.97;;
56297;SDS011;42208;6.376;-10.782;2023-05-16T06:40:12;25.05;;;8.18;;
56297;SDS011;42208;6.376;-10.782;2023-05-16T06:42:40;22.98;;;6.80;;
56297;SDS011;42208;6.376;-10.782;2023-05-16T06:45:10;22.45;;;8.05;;
56297;SDS011;42208;6.376;-10.782;2023-05-16T06:47:39;26.17;;;7.20;;
56297;SDS011;42208;6.376;-10.782;2023-05-16T06:50:07;20.55;;;9.30;;
56297;SDS011;42208;6.376;-10.782;2023-05-16T06:52:36;26.65;;;9.93;;
56297;SDS011;42208;6.376;-10.782;2023-05-16T06:55:04;38.97;;;10.00;;
56297;SDS011;42208;6.376;-10.782;2023-05-16T06:57:39;27.52;;;9.02;;
56297;SDS011;42208;6.376;-10.782;2023-05-16T07:00:07;41.28;;;10.60;;
56297;SDS011;42208;6.376;-10.782;2023-05-16T07:02:36;32.25;;;12.07;;
56297;SDS011;42208;6.376;-10.782;2023-05-16T07:05:05;42.55;;;12.43;;
56297;SDS011;42208;6.376;-10.782;2023-05-16T07:07:34;37.00;;;13.35;;
56297;SDS011;42208;6.376;-10.782;2023-05-16T07:10:02;43.35;;;13.40;;
56297;SDS011;42208;6.376;-10.782;2023-05-16T07:12:31;35.05;;;13.93;;
56297;SDS011;42208;6.376;-10.782;2023-05-16T07:15:00;30.63;;;13.50;;
56297;SDS011;42208;6.376;-10.782;2023-05-16T07:17:28;45.00;;;13.02;;
56297;SDS011;42208;6.376;-10.782;2023-05-16T07:19:56;35.03;;;12.95;;
56297;SDS011;42208;6.376;-10.782;2023-05-16T07:22:31;31.27;;;13.02;;
56297;SDS011;42208;6.376;-10.782;2023-05-16T07:24:59;38.97;;;12.80;;
56297;SDS011;42208;6.376;-10.782;2023-05-16T07:27:27;35.17;;;12.00;;
56297;SDS011;42208;6.376;-10.782;2023-05-16T07:29:55;30.77;;;12.45;;
56297;SDS011;42208;6.376;-10.782;2023-05-16T07:32:24;36.08;;;12.35;;
56297;SDS011;42208;6.376;-10.782;2023-05-16T07:34:53;34.08;;;10.95;;
56297;SDS011;42208;6.376;-10.782;2023-05-16T07:37:21;30.05;;;9.10;;
56297;SDS011;42208;6.376;-10.782;2023-05-16T07:39:50;30.90;;;10.30;;
56297;SDS011;42208;6.376;-10.782;2023-05-16T07:42:18;30.85;;;10.43;;
56297;SDS011;42208;6.376;-10.782;2023-05-16T07:44:47;29.48;;;9.18;;
56297;SDS011;42208;6.376;-10.782;2023-05-16T07:47:15;27.77;;;9.82;;
56297;SDS011;42208;6.376;-10.782;2023-05-16T07:49:44;28.25;;;9.18;;
56297;SDS011;42208;6.376;-10.782;2023-05-16T07:52:12;27.20;;;8.95;;
56297;SDS011;42208;6.376;-10.782;2023-05-16T07:54:40;33.05;;;8.68;;
56297;SDS011;42208;6.376;-10.782;2023-05-16T07:57:09;24.50;;;7.50;;
56297;SDS011;42208;6.376;-10.782;2023-05-16T07:59:38;16.65;;;8.13;;
56297;SDS011;42208;6.376;-10.782;2023-05-16T08:02:06;15.68;;;7.53;;
56297;SDS011;42208;6.376;-10.782;2023-05-16T08:04:35;21.75;;;7.53;;
56297;SDS011;42208;6.376;-10.782;2023-05-16T08:07:04;13.95;;;6.78;;
56297;SDS011;42208;6.376;-10.782;2023-05-16T08:09:33;15.55;;;6.20;;
56297;SDS011;42208;6.376;-10.782;2023-05-16T08:12:02;21.92;;;6.53;;
56297;SDS011;42208;6.376;-10.782;2023-05-16T08:14:30;17.13;;;5.95;;
56297;SDS011;42208;6.376;-10.782;2023-05-16T08:16:58;15.05;;;6.03;;
56297;SDS011;42208;6.376;-10.782;2023-05-16T08:19:27;10.00;;;5.68;;
56297;SDS011;42208;6.376;-10.782;2023-05-16T08:21:55;15.93;;;6.47;;
56297;SDS011;42208;6.376;-10.782;2023-05-16T08:24:24;17.77;;;6.25;;
56297;SDS011;42208;6.376;-10.782;2023-05-16T08:26:52;18.08;;;6.05;;
56297;SDS011;42208;6.376;-10.782;2023-05-16T08:29:20;17.63;;;6.65;;
56297;SDS011;42208;6.376;-10.782;2023-05-16T08:31:48;18.45;;;7.22;;
56297;SDS011;42208;6.376;-10.782;2023-05-16T08:34:17;24.15;;;8.48;;
56297;SDS011;42208;6.376;-10.782;2023-05-16T08:36:45;25.02;;;8.13;;
56297;SDS011;42208;6.376;-10.782;2023-05-16T08:39:13;22.80;;;8.35;;
56297;SDS011;42208;6.376;-10.782;2023-05-16T08:41:42;23.40;;;7.40;;
56297;SDS011;42208;6.376;-10.782;2023-05-16T08:44:10;17.65;;;7.78;;
56297;SDS011;42208;6.376;-10.782;2023-05-16T08:46:39;27.60;;;7.18;;
56297;SDS011;42208;6.376;-10.782;2023-05-16T08:49:08;16.35;;;6.15;;
56297;SDS011;42208;6.376;-10.782;2023-05-16T08:51:37;18.08;;;6.43;;
56297;SDS011;42208;6.376;-10.782;2023-05-16T08:54:09;16.60;;;6.97;;
56297;SDS011;42208;6.376;-10.782;2023-05-16T08:56:43;11.70;;;5.85;;
56297;SDS011;42208;6.376;-10.782;2023-05-16T08:59:11;15.68;;;6.70;;
56297;SDS011;42208;6.376;-10.782;2023-05-16T09:01:41;17.52;;;7.45;;
56297;SDS011;42208;6.376;-10.782;2023-05-16T09:04:10;28.00;;;7.70;;
56297;SDS011;42208;6.376;-10.782;2023-05-16T09:06:38;20.92;;;7.28;;
56297;SDS011;42208;6.376;-10.782;2023-05-16T09:09:06;17.48;;;6.20;;
56297;SDS011;42208;6.376;-10.782;2023-05-16T09:11:34;12.63;;;6.13;;
56297;SDS011;42208;6.376;-10.782;2023-05-16T09:14:03;22.80;;;6.45;;
56297;SDS011;42208;6.376;-10.782;2023-05-16T09:16:31;26.25;;;7.80;;
56297;SDS011;42208;6.376;-10.782;2023-05-16T09:19:00;22.45;;;6.88;;
56297;SDS011;42208;6.376;-10.782;2023-05-16T09:21:32;21.50;;;6.57;;
56297;SDS011;42208;6.376;-10.782;2023-05-16T09:24:01;22.38;;;7.32;;
56297;SDS011;42208;6.376;-10.782;2023-05-16T09:26:32;22.75;;;6.63;;
56297;SDS011;42208;6.376;-10.782;2023-05-16T09:29:10;22.30;;;5.90;;
56297;SDS011;42208;6.376;-10.782;2023-05-16T09:31:39;17.00;;;6.55;;
56297;SDS011;42208;6.376;-10.782;2023-05-16T09:34:09;14.32;;;7.35;;
56297;SDS011;42208;6.376;-10.782;2023-05-16T09:36:37;24.17;;;7.00;;
56297;SDS011;42208;6.376;-10.782;2023-05-16T09:39:09;12.82;;;5.78;;
56297;SDS011;42208;6.376;-10.782;2023-05-16T09:41:41;26.70;;;7.18;;
56297;SDS011;42208;6.376;-10.782;2023-05-16T09:44:10;28.73;;;7.15;;
56297;SDS011;42208;6.376;-10.782;2023-05-16T09:46:38;18.02;;;6.38;;
56297;SDS011;42208;6.376;-10.782;2023-05-16T09:49:10;14.10;;;5.15;;
56297;SDS011;42208;6.376;-10.782;2023-05-16T09:51:39;19.67;;;6.53;;
56297;SDS011;42208;6.376;-10.782;2023-05-16T09:54:07;22.42;;;6.35;;
56297;SDS011;42208;6.376;-10.782;2023-05-16T09:56:57;19.88;;;5.93;;
56297;SDS011;42208;6.376;-10.782;2023-05-16T09:59:37;15.57;;;5.07;;
56297;SDS011;42208;6.376;-10.782;2023-05-16T10:02:06;22.70;;;6.35;;
56297;SDS011;42208;6.376;-10.782;2023-05-16T10:04:41;24.40;;;6.53;;
56297;SDS011;42208;6.376;-10.782;2023-05-16T10:07:09;19.70;;;5.55;;
56297;SDS011;42208;6.376;-10.782;2023-05-16T10:09:38;21.85;;;6.18;;
56297;SDS011;42208;6.376;-10.782;2023-05-16T10:12:07;25.23;;;6.32;;
56297;SDS011;42208;6.376;-10.782;2023-05-16T10:14:38;38.15;;;7.97;;
56297;SDS011;42208;6.376;-10.782;2023-05-16T10:17:09;34.50;;;6.80;;
56297;SDS011;42208;6.376;-10.782;2023-05-16T10:19:40;23.20;;;6.18;;
56297;SDS011;42208;6.376;-10.782;2023-05-16T10:22:10;24.20;;;6.70;;
56297;SDS011;42208;6.376;-10.782;2023-05-16T10:24:43;29.48;;;5.30;;
56297;SDS011;42208;6.376;-10.782;2023-05-16T10:27:15;21.40;;;5.47;;
56297;SDS011;42208;6.376;-10.782;2023-05-16T10:29:45;22.42;;;4.90;;
56297;SDS011;42208;6.376;-10.782;2023-05-16T10:32:22;25.55;;;6.15;;
56297;SDS011;42208;6.376;-10.782;2023-05-16T10:34:51;24.98;;;5.68;;
56297;SDS011;42208;6.376;-10.782;2023-05-16T10:37:21;19.48;;;5.70;;
56297;SDS011;42208;6.376;-10.782;2023-05-16T10:39:50;33.17;;;6.07;;
56297;SDS011;42208;6.376;-10.782;2023-05-16T10:42:19;41.45;;;6.63;;
56297;SDS011;42208;6.376;-10.782;2023-05-16T10:44:47;38.45;;;5.85;;
56297;SDS011;42208;6.376;-10.782;2023-05-16T10:47:30;31.83;;;6.97;;
56297;SDS011;42208;6.376;-10.782;2023-05-16T10:49:59;30.27;;;11.35;;
56297;SDS011;42208;6.376;-10.782;2023-05-16T10:52:33;29.52;;;7.13;;
56297;SDS011;42208;6.376;-10.782;2023-05-16T10:55:02;26.70;;;8.07;;
56297;SDS011;42208;6.376;-10.782;2023-05-16T10:57:31;35.42;;;6.88;;
56297;SDS011;42208;6.376;-10.782;2023-05-16T11:00:01;23.88;;;6.47;;
56297;SDS011;42208;6.376;-10.782;2023-05-16T11:02:48;25.35;;;5.05;;
56297;SDS011;42208;6.376;-10.782;2023-05-16T11:05:19;33.05;;;6.72;;
56297;SDS011;42208;6.376;-10.782;2023-05-16T11:16:52;22.23;;;5.63;;
56297;SDS011;42208;6.376;-10.782;2023-05-16T11:22:09;45.35;;;10.63;;
56297;SDS011;42208;6.376;-10.782;2023-05-16T11:25:03;21.77;;;5.20;;
56297;SDS011;42208;6.376;-10.782;2023-05-16T11:27:33;26.92;;;6.68;;
56297;SDS011;42208;6.376;-10.782;2023-05-16T11:32:46;31.05;;;6.90;;
56297;SDS011;42208;6.376;-10.782;2023-05-16T11:35:15;26.13;;;6.57;;
56297;SDS011;42208;6.376;-10.782;2023-05-16T11:37:46;37.08;;;7.18;;
56297;SDS011;42208;6.376;-10.782;2023-05-16T11:40:14;26.88;;;6.20;;
56297;SDS011;42208;6.376;-10.782;2023-05-16T11:42:46;20.95;;;5.03;;
56297;SDS011;42208;6.376;-10.782;2023-05-16T11:45:15;25.23;;;6.03;;
56297;SDS011;42208;6.376;-10.782;2023-05-16T11:47:46;38.85;;;7.75;;
56297;SDS011;42208;6.376;-10.782;2023-05-16T11:50:17;40.25;;;7.88;;
56297;SDS011;42208;6.376;-10.782;2023-05-16T11:52:52;22.05;;;5.68;;
56297;SDS011;42208;6.376;-10.782;2023-05-16T11:58:07;22.25;;;5.97;;
56297;SDS011;42208;6.376;-10.782;2023-05-16T12:00:46;49.92;;;6.47;;
56297;SDS011;42208;6.376;-10.782;2023-05-16T12:03:23;19.35;;;5.10;;
56297;SDS011;42208;6.376;-10.782;2023-05-16T12:05:55;34.38;;;7.03;;
56297;SDS011;42208;6.376;-10.782;2023-05-16T12:08:23;44.92;;;6.88;;
56297;SDS011;42208;6.376;-10.782;2023-05-16T12:10:52;31.58;;;7.25;;
56297;SDS011;42208;6.376;-10.782;2023-05-16T12:13:21;50.30;;;9.32;;
56297;SDS011;42208;6.376;-10.782;2023-05-16T12:15:50;34.38;;;8.25;;
56297;SDS011;42208;6.376;-10.782;2023-05-16T12:18:19;30.20;;;7.00;;
56297;SDS011;42208;6.376;-10.782;2023-05-16T12:20:48;40.70;;;8.27;;
56297;SDS011;42208;6.376;-10.782;2023-05-16T12:23:17;35.67;;;6.25;;
56297;SDS011;42208;6.376;-10.782;2023-05-16T12:25:48;26.58;;;6.13;;
56297;SDS011;42208;6.376;-10.782;2023-05-16T12:28:16;36.40;;;7.18;;
56297;SDS011;42208;6.376;-10.782;2023-05-16T12:30:45;34.20;;;9.80;;
56297;SDS011;42208;6.376;-10.782;2023-05-16T12:33:13;35.45;;;7.63;;
56297;SDS011;42208;6.376;-10.782;2023-05-16T12:35:43;27.00;;;7.47;;
56297;SDS011;42208;6.376;-10.782;2023-05-16T12:38:13;44.55;;;8.10;;
56297;SDS011;42208;6.376;-10.782;2023-05-16T12:40:42;34.72;;;7.22;;
56297;SDS011;42208;6.376;-10.782;2023-05-16T12:43:21;39.13;;;7.50;;
56297;SDS011;42208;6.376;-10.782;2023-05-16T12:45:50;31.08;;;6.85;;
56297;SDS011;42208;6.376;-10.782;2023-05-16T12:48:23;35.90;;;7.70;;
56297;SDS011;42208;6.376;-10.782;2023-05-16T12:51:11;32.70;;;6.30;;
56297;SDS011;42208;6.376;-10.782;2023-05-16T12:53:44;19.67;;;6.18;;
56297;SDS011;42208;6.376;-10.782;2023-05-16T12:56:39;28.90;;;6.75;;
56297;SDS011;42208;6.376;-10.782;2023-05-16T12:59:08;26.98;;;6.80;;
56297;SDS011;42208;6.376;-10.782;2023-05-16T13:01:36;18.50;;;4.93;;
56297;SDS011;42208;6.376;-10.782;2023-05-16T13:04:05;33.20;;;6.35;;
56297;SDS011;42208;6.376;-10.782;2023-05-16T13:06:34;36.72;;;7.40;;
56297;SDS011;42208;6.376;-10.782;2023-05-16T13:09:22;26.45;;;6.13;;
56297;SDS011;42208;6.376;-10.782;2023-05-16T13:11:51;72.03;;;8.65;;
56297;SDS011;42208;6.376;-10.782;2023-05-16T13:14:19;30.75;;;6.50;;
56297;SDS011;42208;6.376;-10.782;2023-05-16T13:16:47;25.33;;;5.53;;
56297;SDS011;42208;6.376;-10.782;2023-05-16T13:23:59;40.45;;;6.45;;
56297;SDS011;42208;6.376;-10.782;2023-05-16T13:26:27;32.67;;;6.38;;
56297;SDS011;42208;6.376;-10.782;2023-05-16T13:28:55;29.50;;;5.70;;
56297;SDS011;42208;6.376;-10.782;2023-05-16T13:38:23;32.50;;;8.15;;
56297;SDS011;42208;6.376;-10.782;2023-05-16T13:40:52;39.65;;;7.72;;
56297;SDS011;42208;6.376;-10.782;2023-05-16T13:43:20;43.17;;;9.73;;
56297;SDS011;42208;6.376;-10.782;2023-05-16T13:45:48;43.38;;;9.98;;
56297;SDS011;42208;6.376;-10.782;2023-05-16T13:48:17;21.35;;;5.53;;
56297;SDS011;42208;6.376;-10.782;2023-05-16T13:50:45;28.17;;;6.85;;
56297;SDS011;42208;6.376;-10.782;2023-05-16T13:53:13;31.48;;;8.82;;
56297;SDS011;42208;6.376;-10.782;2023-05-16T13:55:42;22.02;;;6.30;;
56297;SDS011;42208;6.376;-10.782;2023-05-16T13:58:11;25.10;;;6.25;;
56297;SDS011;42208;6.376;-10.782;2023-05-16T14:00:39;33.08;;;6.53;;
56297;SDS011;42208;6.376;-10.782;2023-05-16T14:03:16;26.52;;;6.40;;
56297;SDS011;42208;6.376;-10.782;2023-05-16T14:05:45;29.98;;;8.18;;
56297;SDS011;42208;6.376;-10.782;2023-05-16T14:08:13;23.50;;;7.57;;
56297;SDS011;42208;6.376;-10.782;2023-05-16T14:10:41;41.50;;;11.15;;
56297;SDS011;42208;6.376;-10.782;2023-05-16T14:13:09;28.92;;;8.98;;
56297;SDS011;42208;6.376;-10.782;2023-05-16T14:15:37;31.27;;;9.38;;
56297;SDS011;42208;6.376;-10.782;2023-05-16T14:18:06;49.67;;;20.98;;
56297;SDS011;42208;6.376;-10.782;2023-05-16T14:20:40;40.42;;;11.30;;
56297;SDS011;42208;6.376;-10.782;2023-05-16T14:23:08;43.85;;;11.10;;
56297;SDS011;42208;6.376;-10.782;2023-05-16T14:25:36;69.07;;;25.27;;
56297;SDS011;42208;6.376;-10.782;2023-05-16T14:28:04;28.70;;;8.05;;
56297;SDS011;42208;6.376;-10.782;2023-05-16T14:30:33;30.90;;;8.52;;
56297;SDS011;42208;6.376;-10.782;2023-05-16T14:33:01;24.70;;;8.13;;
56297;SDS011;42208;6.376;-10.782;2023-05-16T14:35:29;41.67;;;13.18;;
56297;SDS011;42208;6.376;-10.782;2023-05-16T14:37:59;44.40;;;16.73;;
56297;SDS011;42208;6.376;-10.782;2023-05-16T14:40:33;66.43;;;17.67;;
56297;SDS011;42208;6.376;-10.782;2023-05-16T14:43:01;41.20;;;9.07;;
56297;SDS011;42208;6.376;-10.782;2023-05-16T14:45:29;30.98;;;8.80;;
56297;SDS011;42208;6.376;-10.782;2023-05-16T14:47:57;46.80;;;13.02;;
56297;SDS011;42208;6.376;-10.782;2023-05-16T14:50:28;87.63;;;28.23;;
56297;SDS011;42208;6.376;-10.782;2023-05-16T14:52:56;75.38;;;22.70;;
56297;SDS011;42208;6.376;-10.782;2023-05-16T14:55:24;56.33;;;19.90;;
56297;SDS011;42208;6.376;-10.782;2023-05-16T14:57:53;96.80;;;32.92;;
56297;SDS011;42208;6.376;-10.782;2023-05-16T15:00:25;48.38;;;18.65;;
56297;SDS011;42208;6.376;-10.782;2023-05-16T15:02:54;72.40;;;26.73;;
56297;SDS011;42208;6.376;-10.782;2023-05-16T15:05:22;50.80;;;20.23;;
56297;SDS011;42208;6.376;-10.782;2023-05-16T15:07:51;56.55;;;23.75;;
56297;SDS011;42208;6.376;-10.782;2023-05-16T15:10:19;41.33;;;8.00;;
56297;SDS011;42208;6.376;-10.782;2023-05-16T15:12:47;45.85;;;8.02;;
56297;SDS011;42208;6.376;-10.782;2023-05-16T15:15:15;32.63;;;9.38;;
56297;SDS011;42208;6.376;-10.782;2023-05-16T15:17:44;54.72;;;18.67;;
56297;SDS011;42208;6.376;-10.782;2023-05-16T15:20:15;65.07;;;15.25;;
56297;SDS011;42208;6.376;-10.782;2023-05-16T15:22:46;46.13;;;12.35;;